Time;durP1;ratioP1;P1;durP2;ratioP2;P2;SDS_P1;SDS_P2;PMS_P1;PMS_P2;Temp;Humidity;BMP_temperature;BMP_pressure;BME280_temperature;BME280_humidity;BME280_pressure;Samples;Min_cycle;Max_cycle;Signal;HPM_P1;HPM_P2
2022/08/10 00:09:12;;;;;;;4.00;3.40;;;;;;;13.36;67.21;100541.80;429303;1279;142269;-63
2022/08/10 00:19:18;;;;;;;4.60;4.00;;;;;;;13.14;67.70;100546.27;428599;1277;146053;-62
2022/08/10 00:29:23;;;;;;;4.90;4.00;;;;;;;12.92;68.58;100541.01;428277;1277;146860;-62
2022/08/10 00:39:30;;;;;;;4.50;4.10;;;;;;;12.76;69.08;100539.15;428867;1279;142598;-61
2022/08/10 00:49:41;;;;;;;5.50;4.90;;;;;;;12.55;69.56;100534.50;429036;1277;141914;-65
2022/08/10 00:59:47;;;;;;;6.00;5.50;;;;;;;12.36;70.25;100534.52;428510;1277;199701;-61
2022/08/10 01:10:15;;;;;;;7.90;5.10;;;;;;;12.25;71.02;100534.48;430077;1277;143040;-64
2022/08/10 01:20:24;;;;;;;;;;;;;;;12.15;71.54;100527.95;429104;1277;142594;-64
2022/08/10 01:30:37;;;;;;;5.50;4.40;;;;;;;11.99;71.69;100524.11;430290;1280;129704;-60
2022/08/10 01:40:49;;;;;;;6.30;5.00;;;;;;;11.85;72.02;100523.61;428821;1277;142201;-63
2022/08/10 01:51:00;;;;;;;7.60;4.70;;;;;;;11.76;72.47;100525.48;429366;1277;142233;-62
2022/08/10 02:01:10;;;;;;;8.30;4.50;;;;;;;11.69;72.86;100534.46;429590;1277;142065;-63
2022/08/10 02:11:23;;;;;;;6.90;4.40;;;;;;;11.61;73.28;100529.63;430488;1277;142946;-63
2022/08/10 02:21:30;;;;;;;8.10;4.30;;;;;;;11.48;73.19;100534.49;429871;1277;141309;-63
2022/08/10 02:31:38;;;;;;;6.50;4.30;;;;;;;11.39;73.15;100538.30;430938;1277;143611;-63
2022/08/10 02:41:50;;;;;;;5.10;4.00;;;;;;;11.30;73.54;100540.52;430416;1277;142492;-64
2022/08/10 02:52:20;;;;;;;7.50;3.90;;;;;;;11.18;73.62;100543.92;428372;1277;143894;-63
2022/08/10 03:02:33;;;;;;;6.50;4.00;;;;;;;11.10;73.83;100544.53;429277;1277;143594;-63
2022/08/10 03:12:40;;;;;;;4.80;4.40;;;;;;;11.08;74.11;100546.07;429450;1277;142575;-62
2022/08/10 03:22:49;;;;;;;6.50;4.40;;;;;;;11.10;74.63;100543.86;427760;1277;145089;-63
2022/08/10 03:32:57;;;;;;;4.60;4.20;;;;;;;11.12;74.78;100547.60;428688;1275;141804;-63
2022/08/10 03:43:06;;;;;;;5.40;4.00;;;;;;;11.22;74.97;100547.23;431130;1277;141928;-62
2022/08/10 03:53:13;;;;;;;9.00;4.60;;;;;;;11.44;74.70;100546.67;433203;1277;145935;-64
2022/08/10 04:03:39;;;;;;;8.40;4.30;;;;;;;11.74;74.24;100550.89;430363;1277;142689;-63
2022/08/10 04:13:45;;;;;;;8.70;4.20;;;;;;;12.12;73.95;100557.30;428541;1277;142528;-62
2022/08/10 04:23:53;;;;;;;5.90;4.00;;;;;;;12.54;73.74;100553.23;428441;1277;142291;-62
2022/08/10 04:33:59;;;;;;;;;;;;;;;13.03;73.42;100563.08;428510;1278;143030;-63
2022/08/10 04:44:13;;;;;;;13.40;5.00;;;;;;;13.65;72.93;100566.08;428403;1281;128201;-63
2022/08/10 04:54:19;;;;;;;5.60;4.60;;;;;;;14.18;72.02;100569.70;429878;1279;145616;-63
2022/08/10 05:04:27;;;;;;;8.30;5.90;;;;;;;14.74;71.56;100568.72;429458;1278;143084;-62
2022/08/10 05:14:43;;;;;;;10.40;5.10;;;;;;;18.06;71.01;100571.30;429317;1277;142066;-62
2022/08/10 05:24:49;;;;;;;8.40;5.00;;;;;;;28.04;59.41;100573.42;429506;1277;142746;-62
2022/08/10 05:34:55;;;;;;;10.30;4.50;;;;;;;34.86;47.27;100568.23;428014;1277;142279;-62
2022/08/10 05:45:00;;;;;;;11.90;4.70;;;;;;;39.23;38.65;100568.58;427592;1277;140996;-62
2022/08/10 05:55:09;;;;;;;21.30;4.80;;;;;;;42.98;32.78;100570.24;442573;1277;141934;-63
2022/08/10 06:05:16;;;;;;;8.90;5.90;;;;;;;45.01;27.54;100572.41;436546;1277;142356;-63
2022/08/10 06:24:24;;;;;;;4.10;2.40;;;;;;;47.14;21.83;100574.77;419217;1309;601388;-62
2022/08/10 06:34:39;;;;;;;2.00;1.80;;;;;;;48.23;19.94;100578.90;427671;1282;1393067;-62
2022/08/10 06:44:56;;;;;;;4.60;2.70;;;;;;;47.60;19.06;100576.94;429573;1282;141594;-60
2022/08/10 06:55:05;;;;;;;6.30;2.20;;;;;;;47.85;18.27;100582.36;428978;1282;141684;-60
2022/08/10 07:05:19;;;;;;;6.30;2.70;;;;;;;47.47;17.62;100589.52;429159;1282;142005;-62
2022/08/10 07:15:26;;;;;;;5.50;2.30;;;;;;;47.85;17.31;100591.06;428536;1282;142159;-62
2022/08/10 07:25:53;;;;;;;5.00;3.20;;;;;;;48.91;16.56;100595.33;429367;1283;143894;-62
2022/08/10 07:36:01;;;;;;;3.20;3.00;;;;;;;48.90;15.99;100593.54;429416;1282;146994;-60
2022/08/10 07:46:14;;;;;;;5.80;4.50;;;;;;;50.73;15.45;100588.25;428418;1282;146506;-62
2022/08/10 07:56:22;;;;;;;5.70;4.90;;;;;;;50.55;14.88;100587.15;427719;1284;142378;-62
2022/08/10 08:06:51;;;;;;;6.20;4.00;;;;;;;50.05;14.65;100589.41;426830;1283;146772;-62
2022/08/10 08:16:58;;;;;;;5.10;1.30;;;;;;;48.21;14.99;100593.59;428346;1284;145286;-61
2022/08/10 08:27:06;;;;;;;2.70;1.60;;;;;;;42.11;17.26;100587.03;429130;1283;144958;-62
2022/08/10 08:37:15;;;;;;;2.40;1.20;;;;;;;33.85;22.60;100583.85;428930;1284;140477;-62
2022/08/10 08:48:08;;;;;;;3.00;1.20;;;;;;;31.56;26.00;100587.38;428245;1284;145156;-63
2022/08/10 08:58:26;;;;;;;1.50;1.00;;;;;;;30.27;27.76;100585.29;427642;1283;140300;-63
2022/08/10 09:09:01;;;;;;;14.40;2.50;;;;;;;29.78;29.00;100577.57;428648;1284;142336;-63
2022/08/10 09:19:13;;;;;;;9.80;1.40;;;;;;;29.35;29.77;100573.54;427030;1283;142798;-64
2022/08/10 09:29:46;;;;;;;3.90;1.50;;;;;;;27.96;31.30;100575.85;434847;1278;141730;-62
2022/08/10 09:39:56;;;;;;;2.80;1.40;;;;;;;26.07;33.60;100575.05;428759;1277;145446;-64
2022/08/10 09:50:33;;;;;;;2.30;1.20;;;;;;;26.42;33.71;100566.64;430694;1277;146955;-62
2022/08/10 10:01:10;;;;;;;3.20;1.50;;;;;;;25.83;34.00;100556.81;429921;1277;141522;-63
2022/08/10 10:11:50;;;;;;;0.70;0.70;;;;;;;25.86;34.05;100558.95;428707;1278;141478;-62
2022/08/10 10:22:07;;;;;;;2.10;1.30;;;;;;;25.58;34.70;100549.52;431244;1277;144263;-62
2022/08/10 10:32:21;;;;;;;4.30;1.80;;;;;;;25.02;35.66;100546.92;429127;1278;141867;-59
2022/08/10 10:42:46;;;;;;;1.70;0.90;;;;;;;24.85;35.50;100544.80;429568;1276;147883;-63
2022/08/10 10:53:05;;;;;;;3.50;1.00;;;;;;;24.98;35.19;100534.48;429438;1277;200469;-62
2022/08/10 11:03:45;;;;;;;0.90;0.50;;;;;;;24.29;35.88;100531.16;430320;1278;141555;-64
2022/08/10 11:13:58;;;;;;;3.10;1.30;;;;;;;24.27;35.04;100519.02;428556;1278;141760;-63
2022/08/10 11:24:31;;;;;;;2.80;1.10;;;;;;;24.52;35.40;100510.61;429702;1277;142033;-61
2022/08/10 11:35:01;;;;;;;9.30;1.20;;;;;;;23.85;35.21;100511.94;428552;1277;142299;-64
2022/08/10 11:45:22;;;;;;;4.30;0.90;;;;;;;23.67;35.07;100504.88;432117;1277;142357;-62
2022/08/10 11:55:31;;;;;;;2.60;0.60;;;;;;;23.94;34.69;100492.98;430249;1277;145001;-62
2022/08/10 12:05:40;;;;;;;6.30;0.90;;;;;;;24.07;34.02;100492.88;428729;1277;141270;-62
2022/08/10 12:16:03;;;;;;;0.80;0.60;;;;;;;24.31;34.01;100486.71;430929;1277;143560;-62
2022/08/10 12:26:16;;;;;;;1.80;0.50;;;;;;;24.52;33.79;100478.02;428531;1277;147394;-62
2022/08/10 12:36:27;;;;;;;2.00;0.50;;;;;;;24.23;33.79;100473.85;430046;1276;140909;-62
2022/08/10 12:46:41;;;;;;;1.00;0.80;;;;;;;24.11;34.07;100458.66;429482;1277;142523;-63
2022/08/10 12:56:49;;;;;;;0.80;0.60;;;;;;;24.32;33.64;100451.28;431018;1273;143338;-63
2022/08/10 13:06:58;;;;;;;1.30;0.80;;;;;;;24.84;32.96;100443.60;431037;1272;141552;-64
2022/08/10 13:17:07;;;;;;;4.10;0.90;;;;;;;25.14;32.85;100433.40;432145;1273;142512;-62
2022/08/10 13:27:14;;;;;;;7.70;1.20;;;;;;;24.99;33.65;100434.23;430774;1273;146598;-63
2022/08/10 13:37:34;;;;;;;5.90;1.30;;;;;;;24.29;34.08;100432.60;431535;1273;141588;-61
2022/08/10 13:47:41;;;;;;;1.20;0.70;;;;;;;23.92;34.59;100420.73;431411;1272;141591;-61
2022/08/10 13:57:57;;;;;;;5.70;1.30;;;;;;;23.79;34.81;100421.27;430057;1271;142689;-62
2022/08/10 14:08:09;;;;;;;12.90;2.60;;;;;;;23.49;35.30;100413.49;431279;1271;161894;-62
2022/08/10 14:18:16;;;;;;;3.90;1.20;;;;;;;23.52;35.20;100412.33;430575;1272;142194;-62
2022/08/10 14:28:27;;;;;;;2.00;1.10;;;;;;;23.93;35.30;100396.32;430672;1271;145736;-62
2022/08/10 14:38:36;;;;;;;2.70;1.50;;;;;;;23.95;35.51;100388.61;430121;1271;141783;-64
2022/08/10 14:48:45;;;;;;;5.20;2.00;;;;;;;23.63;35.29;100392.01;433191;1271;148069;-63
2022/08/10 14:58:54;;;;;;;7.50;1.60;;;;;;;23.68;35.39;100386.86;444762;1272;142664;-62
2022/08/10 15:09:15;;;;;;;6.00;2.70;;;;;;;23.90;35.17;100376.06;431292;1272;145238;-60
2022/08/10 15:19:29;;;;;;;4.20;1.30;;;;;;;23.63;35.68;100376.06;430544;1271;142700;-62
2022/08/10 15:29:56;;;;;;;6.40;1.40;;;;;;;23.32;36.45;100368.30;430352;1272;141653;-64
2022/08/10 15:40:08;;;;;;;1.70;1.60;;;;;;;23.15;37.17;100361.64;430429;1271;144181;-63
2022/08/10 15:50:36;;;;;;;2.50;1.90;;;;;;;22.96;37.52;100356.36;430643;1272;141267;-63
2022/08/10 16:00:50;;;;;;;4.90;2.30;;;;;;;22.89;37.32;100352.59;431697;1271;144796;-62
2022/08/10 16:11:01;;;;;;;5.80;2.10;;;;;;;22.70;37.43;100357.04;430715;1271;143223;-63
2022/08/10 16:21:15;;;;;;;3.00;1.60;;;;;;;22.26;38.59;100351.31;434721;1271;142636;-63
2022/08/10 16:31:25;;;;;;;2.80;1.30;;;;;;;22.12;38.72;100354.47;438729;1271;140982;-62
2022/08/10 16:41:32;;;;;;;2.70;1.50;;;;;;;22.11;38.84;100344.52;439538;1271;141877;-62
2022/08/10 16:51:59;;;;;;;2.00;1.70;;;;;;;22.12;39.18;100345.77;430946;1271;140105;-63
2022/08/10 17:02:07;;;;;;;4.70;2.30;;;;;;;22.03;39.23;100349.31;431058;1271;141496;-63
2022/08/10 17:12:17;;;;;;;2.60;1.80;;;;;;;21.90;39.22;100359.30;431024;1271;148788;-64
2022/08/10 17:22:26;;;;;;;6.30;1.50;;;;;;;22.03;39.34;100353.45;431525;1271;146641;-63
2022/08/10 17:32:37;;;;;;;8.30;1.70;;;;;;;21.79;39.45;100357.70;429541;1272;142066;-63
2022/08/10 17:42:50;;;;;;;17.80;2.20;;;;;;;21.49;39.83;100349.26;430912;1272;142545;-63
2022/08/10 17:53:02;;;;;;;8.80;2.30;;;;;;;21.13;40.15;100354.27;429834;1272;140681;-62
2022/08/10 18:03:11;;;;;;;10.00;2.20;;;;;;;20.78;40.48;100352.45;431048;1271;141436;-64
2022/08/10 18:13:33;;;;;;;19.50;2.60;;;;;;;20.41;41.06;100360.73;430330;1272;141841;-62
2022/08/10 18:24:04;;;;;;;9.50;3.20;;;;;;;20.09;41.60;100366.32;431584;1272;146333;-62
2022/08/10 18:34:15;;;;;;;9.10;2.80;;;;;;;19.74;42.61;100369.55;430459;1273;1241643;-63
2022/08/10 18:44:27;;;;;;;12.30;2.80;;;;;;;19.35;44.25;100371.85;430307;1271;146236;-62
2022/08/10 18:54:35;;;;;;;27.80;4.70;;;;;;;18.79;46.90;100377.71;431740;1271;140884;-61
2022/08/10 19:05:03;;;;;;;16.50;2.70;;;;;;;18.23;48.85;100378.33;428931;1272;189664;-62
2022/08/10 19:15:39;;;;;;;14.10;3.50;;;;;;;17.71;50.35;100383.99;435898;1261;141184;-62
2022/08/10 19:25:51;;;;;;;16.60;4.70;;;;;;;17.26;51.92;100385.77;439556;1271;141123;-63
2022/08/10 19:36:25;;;;;;;20.20;5.70;;;;;;;16.92;53.08;100393.21;447299;1272;142585;-63
2022/08/10 19:46:39;;;;;;;14.30;5.20;;;;;;;16.58;54.39;100387.15;436548;1272;142103;-64
2022/08/10 19:57:00;;;;;;;14.80;4.60;;;;;;;16.29;55.81;100386.11;434092;1272;141676;-60
2022/08/10 20:07:17;;;;;;;10.70;4.20;;;;;;;15.98;56.86;100393.73;431561;1272;141986;-59
2022/08/10 20:17:37;;;;;;;11.60;3.70;;;;;;;15.69;57.91;100397.68;432250;1271;142096;-63
2022/08/10 20:28:05;;;;;;;13.90;3.80;;;;;;;15.49;58.84;100393.70;430473;1271;142124;-62
2022/08/10 20:38:24;;;;;;;8.30;3.80;;;;;;;15.33;59.35;100390.39;430856;1271;143096;-66
2022/08/10 20:48:40;;;;;;;11.40;3.80;;;;;;;15.33;59.07;100388.08;430142;1271;142889;-62
2022/08/10 20:59:02;;;;;;;13.90;5.50;;;;;;;15.27;59.72;100390.83;429404;1271;143485;-63
2022/08/10 21:09:27;;;;;;;12.30;4.70;;;;;;;15.05;60.91;100385.27;434757;1273;144401;-62
2022/08/10 21:19:54;;;;;;;13.60;3.80;;;;;;;14.77;61.75;100385.42;437732;1271;141337;-63
2022/08/10 23:05:00;;;;;;;5.20;3.30;;;;;;;13.48;66.13;100365.74;430699;1271;141474;-62
2022/08/10 23:25:47;;;;;;;5.20;3.60;;;;;;;13.08;67.57;100365.20;430819;1273;141974;-63
2022/08/10 23:36:06;;;;;;;5.50;4.10;;;;;;;12.90;67.97;100364.70;431499;1273;141863;-62
2022/08/10 23:46:37;;;;;;;7.10;4.10;;;;;;;12.72;68.45;100363.68;432654;1272;142311;-62
2022/08/10 23:56:47;;;;;;;8.20;3.70;;;;;;;12.61;68.95;100361.16;431879;1274;144809;-63
